sensor_id;sensor_type;location;lat;lon;timestamp;P1;durP1;ratioP1;P2;durP2;ratioP2
83282;SDS011;73190;50.780;5.658;2024-01-30T00:00:05;10.38;;;5.65;;
83282;SDS011;73190;50.780;5.658;2024-01-30T00:02:34;10.30;;;5.33;;
83282;SDS011;73190;50.780;5.658;2024-01-30T00:05:01;9.80;;;5.47;;
83282;SDS011;73190;50.780;5.658;2024-01-30T00:07:29;8.93;;;5.40;;
83282;SDS011;73190;50.780;5.658;2024-01-30T00:09:57;8.03;;;5.15;;
83282;SDS011;73190;50.780;5.658;2024-01-30T00:12:25;9.55;;;5.20;;
83282;SDS011;73190;50.780;5.658;2024-01-30T00:14:53;11.18;;;5.55;;
83282;SDS011;73190;50.780;5.658;2024-01-30T00:17:20;8.13;;;5.12;;
83282;SDS011;73190;50.780;5.658;2024-01-30T00:19:49;9.85;;;5.55;;
83282;SDS011;73190;50.780;5.658;2024-01-30T00:22:16;8.28;;;5.10;;
83282;SDS011;73190;50.780;5.658;2024-01-30T00:24:44;10.00;;;5.55;;
83282;SDS011;73190;50.780;5.658;2024-01-30T00:27:12;10.70;;;5.53;;
83282;SDS011;73190;50.780;5.658;2024-01-30T00:29:39;8.60;;;5.25;;
83282;SDS011;73190;50.780;5.658;2024-01-30T00:32:07;8.70;;;5.28;;
83282;SDS011;73190;50.780;5.658;2024-01-30T00:34:34;10.05;;;5.30;;
83282;SDS011;73190;50.780;5.658;2024-01-30T00:37:02;9.73;;;5.85;;
83282;SDS011;73190;50.780;5.658;2024-01-30T00:39:29;7.78;;;4.92;;
83282;SDS011;73190;50.780;5.658;2024-01-30T00:41:57;8.65;;;5.03;;
83282;SDS011;73190;50.780;5.658;2024-01-30T00:44:24;9.15;;;4.95;;
83282;SDS011;73190;50.780;5.658;2024-01-30T00:46:52;8.08;;;5.15;;
83282;SDS011;73190;50.780;5.658;2024-01-30T00:49:20;9.00;;;4.80;;
83282;SDS011;73190;50.780;5.658;2024-01-30T00:51:47;9.55;;;5.72;;
83282;SDS011;73190;50.780;5.658;2024-01-30T00:54:15;7.83;;;5.08;;
83282;SDS011;73190;50.780;5.658;2024-01-30T00:56:43;8.50;;;4.80;;
83282;SDS011;73190;50.780;5.658;2024-01-30T00:59:11;10.75;;;5.25;;
83282;SDS011;73190;50.780;5.658;2024-01-30T01:01:38;8.65;;;4.70;;
83282;SDS011;73190;50.780;5.658;2024-01-30T01:04:06;8.43;;;4.70;;
83282;SDS011;73190;50.780;5.658;2024-01-30T01:06:33;8.80;;;5.00;;
83282;SDS011;73190;50.780;5.658;2024-01-30T01:09:01;6.10;;;4.10;;
83282;SDS011;73190;50.780;5.658;2024-01-30T01:11:29;7.75;;;4.75;;
83282;SDS011;73190;50.780;5.658;2024-01-30T01:13:57;7.08;;;4.92;;
83282;SDS011;73190;50.780;5.658;2024-01-30T01:16:24;9.38;;;4.60;;
83282;SDS011;73190;50.780;5.658;2024-01-30T01:18:52;7.42;;;4.40;;
83282;SDS011;73190;50.780;5.658;2024-01-30T01:21:19;6.55;;;4.85;;
83282;SDS011;73190;50.780;5.658;2024-01-30T01:23:47;9.80;;;4.58;;
83282;SDS011;73190;50.780;5.658;2024-01-30T01:26:14;6.97;;;4.45;;
83282;SDS011;73190;50.780;5.658;2024-01-30T01:28:42;12.88;;;5.60;;
83282;SDS011;73190;50.780;5.658;2024-01-30T01:31:09;24.30;;;8.10;;
83282;SDS011;73190;50.780;5.658;2024-01-30T01:33:37;26.85;;;8.58;;
83282;SDS011;73190;50.780;5.658;2024-01-30T01:36:05;9.83;;;4.90;;
83282;SDS011;73190;50.780;5.658;2024-01-30T01:38:32;8.48;;;4.62;;
83282;SDS011;73190;50.780;5.658;2024-01-30T01:41:01;11.12;;;5.92;;
83282;SDS011;73190;50.780;5.658;2024-01-30T01:43:28;12.20;;;6.25;;
83282;SDS011;73190;50.780;5.658;2024-01-30T01:45:56;10.20;;;5.20;;
83282;SDS011;73190;50.780;5.658;2024-01-30T01:48:24;7.62;;;4.53;;
83282;SDS011;73190;50.780;5.658;2024-01-30T01:50:52;7.60;;;4.15;;
83282;SDS011;73190;50.780;5.658;2024-01-30T01:53:20;7.90;;;4.58;;
83282;SDS011;73190;50.780;5.658;2024-01-30T01:55:48;8.45;;;4.42;;
83282;SDS011;73190;50.780;5.658;2024-01-30T01:58:18;7.78;;;4.30;;
83282;SDS011;73190;50.780;5.658;2024-01-30T02:03:15;8.88;;;4.33;;
83282;SDS011;73190;50.780;5.658;2024-01-30T02:05:46;6.85;;;4.78;;
83282;SDS011;73190;50.780;5.658;2024-01-30T02:08:14;6.28;;;4.28;;
83282;SDS011;73190;50.780;5.658;2024-01-30T02:10:42;9.55;;;4.65;;
83282;SDS011;73190;50.780;5.658;2024-01-30T02:13:09;6.35;;;4.22;;
83282;SDS011;73190;50.780;5.658;2024-01-30T02:15:37;8.28;;;4.20;;
83282;SDS011;73190;50.780;5.658;2024-01-30T02:18:04;7.17;;;4.05;;
83282;SDS011;73190;50.780;5.658;2024-01-30T02:20:32;10.03;;;4.92;;
83282;SDS011;73190;50.780;5.658;2024-01-30T02:23:01;8.50;;;4.45;;
83282;SDS011;73190;50.780;5.658;2024-01-30T02:25:34;8.70;;;4.60;;
83282;SDS011;73190;50.780;5.658;2024-01-30T02:28:03;7.20;;;4.17;;
83282;SDS011;73190;50.780;5.658;2024-01-30T02:30:31;8.90;;;4.53;;
83282;SDS011;73190;50.780;5.658;2024-01-30T02:32:58;7.95;;;4.75;;
83282;SDS011;73190;50.780;5.658;2024-01-30T02:35:26;8.13;;;4.60;;
83282;SDS011;73190;50.780;5.658;2024-01-30T02:37:53;9.10;;;4.22;;
83282;SDS011;73190;50.780;5.658;2024-01-30T02:40:22;9.48;;;4.30;;
83282;SDS011;73190;50.780;5.658;2024-01-30T02:42:49;8.10;;;4.30;;
83282;SDS011;73190;50.780;5.658;2024-01-30T02:45:17;8.78;;;4.22;;
83282;SDS011;73190;50.780;5.658;2024-01-30T02:47:45;6.97;;;4.05;;
83282;SDS011;73190;50.780;5.658;2024-01-30T02:50:12;6.78;;;3.75;;
83282;SDS011;73190;50.780;5.658;2024-01-30T02:52:40;5.90;;;3.90;;
83282;SDS011;73190;50.780;5.658;2024-01-30T02:55:09;10.00;;;4.00;;
83282;SDS011;73190;50.780;5.658;2024-01-30T02:57:38;7.45;;;4.70;;
83282;SDS011;73190;50.780;5.658;2024-01-30T03:00:07;6.30;;;4.42;;
83282;SDS011;73190;50.780;5.658;2024-01-30T03:02:35;5.67;;;3.85;;
83282;SDS011;73190;50.780;5.658;2024-01-30T03:05:04;7.37;;;4.25;;
83282;SDS011;73190;50.780;5.658;2024-01-30T03:07:33;8.68;;;4.50;;
83282;SDS011;73190;50.780;5.658;2024-01-30T03:10:00;6.80;;;4.60;;
83282;SDS011;73190;50.780;5.658;2024-01-30T03:12:28;7.33;;;4.08;;
83282;SDS011;73190;50.780;5.658;2024-01-30T03:14:55;7.85;;;3.83;;
83282;SDS011;73190;50.780;5.658;2024-01-30T03:17:23;8.15;;;4.33;;
83282;SDS011;73190;50.780;5.658;2024-01-30T03:19:51;6.87;;;4.10;;
83282;SDS011;73190;50.780;5.658;2024-01-30T03:22:18;6.83;;;4.40;;
83282;SDS011;73190;50.780;5.658;2024-01-30T03:24:46;6.42;;;4.10;;
83282;SDS011;73190;50.780;5.658;2024-01-30T03:27:13;7.62;;;4.20;;
83282;SDS011;73190;50.780;5.658;2024-01-30T03:29:41;9.33;;;4.05;;
83282;SDS011;73190;50.780;5.658;2024-01-30T03:32:08;9.80;;;4.33;;
83282;SDS011;73190;50.780;5.658;2024-01-30T03:34:36;8.40;;;4.05;;
83282;SDS011;73190;50.780;5.658;2024-01-30T03:37:03;6.47;;;4.12;;
83282;SDS011;73190;50.780;5.658;2024-01-30T03:39:31;7.72;;;4.22;;
83282;SDS011;73190;50.780;5.658;2024-01-30T03:41:58;5.72;;;3.85;;
83282;SDS011;73190;50.780;5.658;2024-01-30T03:44:26;6.35;;;3.70;;
83282;SDS011;73190;50.780;5.658;2024-01-30T03:46:53;6.90;;;4.30;;
83282;SDS011;73190;50.780;5.658;2024-01-30T03:49:21;7.95;;;3.90;;
83282;SDS011;73190;50.780;5.658;2024-01-30T03:51:48;7.50;;;4.30;;
83282;SDS011;73190;50.780;5.658;2024-01-30T03:54:16;7.33;;;4.03;;
83282;SDS011;73190;50.780;5.658;2024-01-30T03:56:43;9.55;;;3.77;;
83282;SDS011;73190;50.780;5.658;2024-01-30T03:59:11;8.28;;;4.08;;
83282;SDS011;73190;50.780;5.658;2024-01-30T04:01:38;6.65;;;4.08;;
83282;SDS011;73190;50.780;5.658;2024-01-30T04:04:06;6.45;;;4.05;;
83282;SDS011;73190;50.780;5.658;2024-01-30T04:06:34;7.60;;;4.33;;
83282;SDS011;73190;50.780;5.658;2024-01-30T04:09:03;6.35;;;3.92;;
83282;SDS011;73190;50.780;5.658;2024-01-30T04:11:30;7.20;;;4.58;;
83282;SDS011;73190;50.780;5.658;2024-01-30T04:13:58;6.00;;;4.75;;
83282;SDS011;73190;50.780;5.658;2024-01-30T04:16:25;7.92;;;4.10;;
83282;SDS011;73190;50.780;5.658;2024-01-30T04:18:53;9.98;;;4.40;;
83282;SDS011;73190;50.780;5.658;2024-01-30T04:21:21;7.70;;;3.60;;
83282;SDS011;73190;50.780;5.658;2024-01-30T04:23:48;7.25;;;3.67;;
83282;SDS011;73190;50.780;5.658;2024-01-30T04:26:17;5.65;;;3.80;;
83282;SDS011;73190;50.780;5.658;2024-01-30T04:28:45;5.75;;;3.80;;
83282;SDS011;73190;50.780;5.658;2024-01-30T04:31:12;6.87;;;3.72;;
83282;SDS011;73190;50.780;5.658;2024-01-30T04:33:40;6.70;;;3.87;;
83282;SDS011;73190;50.780;5.658;2024-01-30T04:36:10;6.42;;;4.40;;
83282;SDS011;73190;50.780;5.658;2024-01-30T04:38:38;9.08;;;4.42;;
83282;SDS011;73190;50.780;5.658;2024-01-30T04:41:05;12.55;;;7.28;;
83282;SDS011;73190;50.780;5.658;2024-01-30T04:43:34;9.63;;;4.03;;
83282;SDS011;73190;50.780;5.658;2024-01-30T04:46:01;8.63;;;4.90;;
83282;SDS011;73190;50.780;5.658;2024-01-30T04:48:29;8.65;;;4.50;;
83282;SDS011;73190;50.780;5.658;2024-01-30T04:50:57;24.60;;;11.70;;
83282;SDS011;73190;50.780;5.658;2024-01-30T04:53:26;60.23;;;26.77;;
83282;SDS011;73190;50.780;5.658;2024-01-30T04:55:54;11.40;;;6.10;;
83282;SDS011;73190;50.780;5.658;2024-01-30T04:58:21;38.80;;;12.73;;
83282;SDS011;73190;50.780;5.658;2024-01-30T05:00:49;37.73;;;15.20;;
83282;SDS011;73190;50.780;5.658;2024-01-30T05:03:18;18.80;;;7.00;;
83282;SDS011;73190;50.780;5.658;2024-01-30T05:05:48;23.38;;;9.35;;
83282;SDS011;73190;50.780;5.658;2024-01-30T05:08:15;33.58;;;12.95;;
83282;SDS011;73190;50.780;5.658;2024-01-30T05:10:43;10.13;;;5.60;;
83282;SDS011;73190;50.780;5.658;2024-01-30T05:13:10;7.75;;;4.08;;
83282;SDS011;73190;50.780;5.658;2024-01-30T05:15:39;8.55;;;4.15;;
83282;SDS011;73190;50.780;5.658;2024-01-30T05:18:07;9.43;;;4.70;;
83282;SDS011;73190;50.780;5.658;2024-01-30T05:20:34;7.42;;;4.03;;
83282;SDS011;73190;50.780;5.658;2024-01-30T05:23:02;7.45;;;3.83;;
83282;SDS011;73190;50.780;5.658;2024-01-30T05:25:29;6.87;;;4.12;;
83282;SDS011;73190;50.780;5.658;2024-01-30T05:27:57;11.35;;;5.17;;
83282;SDS011;73190;50.780;5.658;2024-01-30T05:30:24;8.23;;;5.17;;
83282;SDS011;73190;50.780;5.658;2024-01-30T05:32:52;9.13;;;3.95;;
83282;SDS011;73190;50.780;5.658;2024-01-30T05:35:19;9.28;;;4.37;;
83282;SDS011;73190;50.780;5.658;2024-01-30T05:37:50;7.53;;;4.00;;
83282;SDS011;73190;50.780;5.658;2024-01-30T05:40:17;7.55;;;3.58;;
83282;SDS011;73190;50.780;5.658;2024-01-30T05:42:45;5.90;;;3.58;;
83282;SDS011;73190;50.780;5.658;2024-01-30T05:45:12;6.33;;;4.15;;
83282;SDS011;73190;50.780;5.658;2024-01-30T05:47:40;6.60;;;3.87;;
83282;SDS011;73190;50.780;5.658;2024-01-30T05:50:07;8.45;;;3.25;;
83282;SDS011;73190;50.780;5.658;2024-01-30T05:52:35;7.40;;;3.85;;
83282;SDS011;73190;50.780;5.658;2024-01-30T05:55:02;6.90;;;3.75;;
83282;SDS011;73190;50.780;5.658;2024-01-30T05:57:31;6.58;;;4.17;;
83282;SDS011;73190;50.780;5.658;2024-01-30T05:59:59;9.28;;;4.47;;
83282;SDS011;73190;50.780;5.658;2024-01-30T06:02:26;6.35;;;4.12;;
83282;SDS011;73190;50.780;5.658;2024-01-30T06:04:54;8.58;;;4.25;;
83282;SDS011;73190;50.780;5.658;2024-01-30T06:07:21;6.58;;;4.17;;
83282;SDS011;73190;50.780;5.658;2024-01-30T06:09:49;7.17;;;3.85;;
83282;SDS011;73190;50.780;5.658;2024-01-30T06:12:16;6.50;;;4.22;;
83282;SDS011;73190;50.780;5.658;2024-01-30T06:14:44;5.87;;;3.55;;
83282;SDS011;73190;50.780;5.658;2024-01-30T06:17:11;7.42;;;4.20;;
83282;SDS011;73190;50.780;5.658;2024-01-30T06:19:39;7.45;;;4.20;;
83282;SDS011;73190;50.780;5.658;2024-01-30T06:22:07;6.85;;;3.75;;
83282;SDS011;73190;50.780;5.658;2024-01-30T06:24:35;6.40;;;3.77;;
83282;SDS011;73190;50.780;5.658;2024-01-30T06:27:02;6.55;;;4.45;;
83282;SDS011;73190;50.780;5.658;2024-01-30T06:29:30;5.75;;;3.50;;
83282;SDS011;73190;50.780;5.658;2024-01-30T06:31:57;7.95;;;4.10;;
83282;SDS011;73190;50.780;5.658;2024-01-30T06:34:25;10.48;;;4.25;;
83282;SDS011;73190;50.780;5.658;2024-01-30T06:36:53;6.95;;;3.72;;
83282;SDS011;73190;50.780;5.658;2024-01-30T06:39:22;5.80;;;4.03;;
83282;SDS011;73190;50.780;5.658;2024-01-30T06:41:50;6.33;;;3.40;;
83282;SDS011;73190;50.780;5.658;2024-01-30T06:44:18;6.22;;;3.70;;
83282;SDS011;73190;50.780;5.658;2024-01-30T06:46:45;7.58;;;4.50;;
83282;SDS011;73190;50.780;5.658;2024-01-30T06:49:13;7.05;;;4.00;;
83282;SDS011;73190;50.780;5.658;2024-01-30T06:51:41;8.53;;;3.83;;
83282;SDS011;73190;50.780;5.658;2024-01-30T06:54:08;6.58;;;3.60;;
83282;SDS011;73190;50.780;5.658;2024-01-30T06:56:36;8.33;;;3.52;;
83282;SDS011;73190;50.780;5.658;2024-01-30T06:59:03;7.58;;;4.10;;
83282;SDS011;73190;50.780;5.658;2024-01-30T07:01:31;6.72;;;4.08;;
83282;SDS011;73190;50.780;5.658;2024-01-30T07:03:58;7.12;;;4.42;;
83282;SDS011;73190;50.780;5.658;2024-01-30T07:06:26;7.80;;;3.92;;
83282;SDS011;73190;50.780;5.658;2024-01-30T07:08:53;7.00;;;4.08;;
83282;SDS011;73190;50.780;5.658;2024-01-30T07:11:21;6.92;;;3.65;;
83282;SDS011;73190;50.780;5.658;2024-01-30T07:13:52;7.08;;;4.35;;
83282;SDS011;73190;50.780;5.658;2024-01-30T07:16:20;8.60;;;4.22;;
83282;SDS011;73190;50.780;5.658;2024-01-30T07:18:48;6.45;;;4.50;;
83282;SDS011;73190;50.780;5.658;2024-01-30T07:21:16;7.03;;;4.00;;
83282;SDS011;73190;50.780;5.658;2024-01-30T07:23:43;10.15;;;4.28;;
83282;SDS011;73190;50.780;5.658;2024-01-30T07:26:13;8.25;;;4.05;;
83282;SDS011;73190;50.780;5.658;2024-01-30T07:28:44;6.85;;;3.83;;
83282;SDS011;73190;50.780;5.658;2024-01-30T07:31:21;5.92;;;4.03;;
83282;SDS011;73190;50.780;5.658;2024-01-30T07:33:56;6.97;;;4.33;;
83282;SDS011;73190;50.780;5.658;2024-01-30T07:36:33;11.15;;;4.95;;
83282;SDS011;73190;50.780;5.658;2024-01-30T07:39:03;8.55;;;4.05;;
83282;SDS011;73190;50.780;5.658;2024-01-30T07:41:30;7.65;;;4.75;;
83282;SDS011;73190;50.780;5.658;2024-01-30T07:43:58;8.05;;;4.53;;
83282;SDS011;73190;50.780;5.658;2024-01-30T07:46:26;10.18;;;4.47;;
83282;SDS011;73190;50.780;5.658;2024-01-30T07:48:54;8.25;;;4.67;;
83282;SDS011;73190;50.780;5.658;2024-01-30T07:51:23;8.75;;;4.28;;
83282;SDS011;73190;50.780;5.658;2024-01-30T07:53:51;7.62;;;4.30;;
83282;SDS011;73190;50.780;5.658;2024-01-30T07:56:18;7.87;;;4.30;;
83282;SDS011;73190;50.780;5.658;2024-01-30T07:58:46;10.05;;;4.47;;
83282;SDS011;73190;50.780;5.658;2024-01-30T08:01:14;11.00;;;4.78;;
83282;SDS011;73190;50.780;5.658;2024-01-30T08:03:42;10.82;;;5.30;;
83282;SDS011;73190;50.780;5.658;2024-01-30T08:06:09;10.08;;;4.37;;
83282;SDS011;73190;50.780;5.658;2024-01-30T08:08:37;6.67;;;4.30;;
83282;SDS011;73190;50.780;5.658;2024-01-30T08:11:05;11.18;;;4.87;;
83282;SDS011;73190;50.780;5.658;2024-01-30T08:13:33;7.97;;;4.92;;
83282;SDS011;73190;50.780;5.658;2024-01-30T08:16:01;9.10;;;4.70;;
83282;SDS011;73190;50.780;5.658;2024-01-30T08:18:30;12.63;;;4.92;;
83282;SDS011;73190;50.780;5.658;2024-01-30T08:21:00;9.40;;;4.33;;
83282;SDS011;73190;50.780;5.658;2024-01-30T08:23:27;13.40;;;5.30;;
83282;SDS011;73190;50.780;5.658;2024-01-30T08:25:55;11.97;;;5.08;;
83282;SDS011;73190;50.780;5.658;2024-01-30T08:28:22;8.50;;;4.72;;
83282;SDS011;73190;50.780;5.658;2024-01-30T08:30:50;12.00;;;5.20;;
83282;SDS011;73190;50.780;5.658;2024-01-30T08:33:17;11.55;;;4.87;;
83282;SDS011;73190;50.780;5.658;2024-01-30T08:35:47;6.28;;;4.28;;
83282;SDS011;73190;50.780;5.658;2024-01-30T08:38:17;7.00;;;4.60;;
83282;SDS011;73190;50.780;5.658;2024-01-30T08:40:46;8.30;;;4.37;;
83282;SDS011;73190;50.780;5.658;2024-01-30T08:43:14;9.98;;;4.65;;
83282;SDS011;73190;50.780;5.658;2024-01-30T08:45:42;8.80;;;5.37;;
83282;SDS011;73190;50.780;5.658;2024-01-30T08:48:09;9.18;;;5.45;;
83282;SDS011;73190;50.780;5.658;2024-01-30T08:50:37;10.90;;;4.83;;
83282;SDS011;73190;50.780;5.658;2024-01-30T08:53:04;7.80;;;4.40;;
83282;SDS011;73190;50.780;5.658;2024-01-30T08:55:32;10.03;;;4.65;;
83282;SDS011;73190;50.780;5.658;2024-01-30T08:57:59;10.82;;;4.85;;
83282;SDS011;73190;50.780;5.658;2024-01-30T09:00:29;8.20;;;4.72;;
83282;SDS011;73190;50.780;5.658;2024-01-30T09:02:56;9.80;;;4.83;;
83282;SDS011;73190;50.780;5.658;2024-01-30T09:05:24;10.53;;;4.80;;
83282;SDS011;73190;50.780;5.658;2024-01-30T09:07:51;9.30;;;5.00;;
83282;SDS011;73190;50.780;5.658;2024-01-30T09:10:19;10.95;;;5.15;;
83282;SDS011;73190;50.780;5.658;2024-01-30T09:12:47;12.40;;;5.15;;
83282;SDS011;73190;50.780;5.658;2024-01-30T09:15:15;10.10;;;4.83;;
83282;SDS011;73190;50.780;5.658;2024-01-30T09:17:42;10.18;;;4.70;;
83282;SDS011;73190;50.780;5.658;2024-01-30T09:20:10;14.98;;;6.00;;
83282;SDS011;73190;50.780;5.658;2024-01-30T09:22:38;13.25;;;6.53;;
83282;SDS011;73190;50.780;5.658;2024-01-30T09:25:05;10.43;;;5.65;;
83282;SDS011;73190;50.780;5.658;2024-01-30T09:27:33;10.40;;;5.70;;
83282;SDS011;73190;50.780;5.658;2024-01-30T09:30:01;11.97;;;5.70;;
83282;SDS011;73190;50.780;5.658;2024-01-30T09:32:29;11.78;;;5.85;;
83282;SDS011;73190;50.780;5.658;2024-01-30T09:34:56;11.33;;;5.42;;
83282;SDS011;73190;50.780;5.658;2024-01-30T09:37:24;9.35;;;5.15;;
83282;SDS011;73190;50.780;5.658;2024-01-30T09:39:51;9.65;;;5.03;;
83282;SDS011;73190;50.780;5.658;2024-01-30T09:45:05;10.03;;;4.83;;
83282;SDS011;73190;50.780;5.658;2024-01-30T09:47:41;9.90;;;4.92;;
83282;SDS011;73190;50.780;5.658;2024-01-30T09:50:08;10.15;;;5.05;;
83282;SDS011;73190;50.780;5.658;2024-01-30T09:52:37;6.28;;;4.50;;
83282;SDS011;73190;50.780;5.658;2024-01-30T09:55:04;9.85;;;4.58;;
83282;SDS011;73190;50.780;5.658;2024-01-30T09:57:37;12.50;;;4.67;;
83282;SDS011;73190;50.780;5.658;2024-01-30T10:00:05;11.78;;;5.08;;
83282;SDS011;73190;50.780;5.658;2024-01-30T10:02:34;7.47;;;4.08;;
83282;SDS011;73190;50.780;5.658;2024-01-30T10:05:02;8.00;;;5.17;;
83282;SDS011;73190;50.780;5.658;2024-01-30T10:07:30;9.65;;;4.87;;
83282;SDS011;73190;50.780;5.658;2024-01-30T10:09:57;11.97;;;5.47;;
83282;SDS011;73190;50.780;5.658;2024-01-30T10:12:29;13.50;;;4.87;;
83282;SDS011;73190;50.780;5.658;2024-01-30T10:14:57;10.48;;;5.28;;
83282;SDS011;73190;50.780;5.658;2024-01-30T10:17:25;10.23;;;5.58;;
83282;SDS011;73190;50.780;5.658;2024-01-30T10:19:52;13.30;;;5.35;;
83282;SDS011;73190;50.780;5.658;2024-01-30T10:22:20;10.50;;;4.95;;
83282;SDS011;73190;50.780;5.658;2024-01-30T10:24:48;10.35;;;5.00;;
83282;SDS011;73190;50.780;5.658;2024-01-30T10:27:15;12.95;;;5.42;;
83282;SDS011;73190;50.780;5.658;2024-01-30T10:29:43;10.58;;;4.95;;
83282;SDS011;73190;50.780;5.658;2024-01-30T10:32:12;13.85;;;5.47;;
83282;SDS011;73190;50.780;5.658;2024-01-30T10:34:39;10.70;;;5.47;;
83282;SDS011;73190;50.780;5.658;2024-01-30T10:37:08;10.13;;;5.58;;
83282;SDS011;73190;50.780;5.658;2024-01-30T10:39:41;9.48;;;4.78;;
83282;SDS011;73190;50.780;5.658;2024-01-30T10:42:14;18.40;;;5.90;;
83282;SDS011;73190;50.780;5.658;2024-01-30T10:45:00;13.43;;;5.42;;
83282;SDS011;73190;50.780;5.658;2024-01-30T10:47:53;9.75;;;5.35;;
83282;SDS011;73190;50.780;5.658;2024-01-30T10:50:17;14.03;;;5.00;;
83282;SDS011;73190;50.780;5.658;2024-01-30T10:52:45;16.25;;;5.90;;
83282;SDS011;73190;50.780;5.658;2024-01-30T10:55:14;12.78;;;5.92;;
83282;SDS011;73190;50.780;5.658;2024-01-30T10:57:45;9.20;;;5.72;;
83282;SDS011;73190;50.780;5.658;2024-01-30T11:00:14;10.58;;;5.28;;
83282;SDS011;73190;50.780;5.658;2024-01-30T11:02:45;12.18;;;5.65;;
83282;SDS011;73190;50.780;5.658;2024-01-30T11:05:14;17.12;;;6.87;;
83282;SDS011;73190;50.780;5.658;2024-01-30T11:07:43;12.58;;;6.10;;
83282;SDS011;73190;50.780;5.658;2024-01-30T11:10:11;14.15;;;5.92;;
83282;SDS011;73190;50.780;5.658;2024-01-30T11:12:41;12.00;;;5.97;;
83282;SDS011;73190;50.780;5.658;2024-01-30T11:15:11;13.45;;;5.95;;
83282;SDS011;73190;50.780;5.658;2024-01-30T11:20:22;15.30;;;5.85;;
83282;SDS011;73190;50.780;5.658;2024-01-30T11:22:55;12.85;;;6.58;;
83282;SDS011;73190;50.780;5.658;2024-01-30T11:25:24;11.90;;;6.78;;
83282;SDS011;73190;50.780;5.658;2024-01-30T11:27:53;14.13;;;6.62;;
83282;SDS011;73190;50.780;5.658;2024-01-30T11:30:22;12.53;;;6.30;;
83282;SDS011;73190;50.780;5.658;2024-01-30T11:35:32;12.63;;;6.30;;
83282;SDS011;73190;50.780;5.658;2024-01-30T11:38:02;15.43;;;6.53;;
83282;SDS011;73190;50.780;5.658;2024-01-30T11:40:31;14.20;;;6.83;;
83282;SDS011;73190;50.780;5.658;2024-01-30T11:43:00;13.72;;;7.10;;
83282;SDS011;73190;50.780;5.658;2024-01-30T11:45:28;18.32;;;6.83;;
83282;SDS011;73190;50.780;5.658;2024-01-30T11:47:56;14.85;;;7.55;;
83282;SDS011;73190;50.780;5.658;2024-01-30T11:50:26;13.45;;;6.08;;
83282;SDS011;73190;50.780;5.658;2024-01-30T11:52:54;13.55;;;7.25;;
83282;SDS011;73190;50.780;5.658;2024-01-30T11:55:23;16.87;;;7.37;;
83282;SDS011;73190;50.780;5.658;2024-01-30T11:57:51;16.82;;;7.45;;
83282;SDS011;73190;50.780;5.658;2024-01-30T12:00:20;13.65;;;7.08;;
83282;SDS011;73190;50.780;5.658;2024-01-30T12:02:54;11.68;;;7.55;;
83282;SDS011;73190;50.780;5.658;2024-01-30T12:05:23;16.70;;;6.62;;
83282;SDS011;73190;50.780;5.658;2024-01-30T12:07:51;14.78;;;7.30;;
83282;SDS011;73190;50.780;5.658;2024-01-30T12:10:19;23.38;;;14.30;;
83282;SDS011;73190;50.780;5.658;2024-01-30T12:12:48;16.32;;;9.25;;
83282;SDS011;73190;50.780;5.658;2024-01-30T12:15:17;11.80;;;6.90;;
83282;SDS011;73190;50.780;5.658;2024-01-30T12:17:47;15.75;;;10.53;;
83282;SDS011;73190;50.780;5.658;2024-01-30T12:20:15;14.60;;;7.60;;
83282;SDS011;73190;50.780;5.658;2024-01-30T12:22:48;19.00;;;8.48;;
83282;SDS011;73190;50.780;5.658;2024-01-30T12:25:17;12.53;;;6.85;;
83282;SDS011;73190;50.780;5.658;2024-01-30T12:27:50;11.53;;;7.08;;
83282;SDS011;73190;50.780;5.658;2024-01-30T12:30:18;17.50;;;7.50;;
83282;SDS011;73190;50.780;5.658;2024-01-30T12:32:48;16.10;;;7.10;;
83282;SDS011;73190;50.780;5.658;2024-01-30T12:35:17;11.83;;;6.62;;
83282;SDS011;73190;50.780;5.658;2024-01-30T12:37:46;13.93;;;6.40;;
83282;SDS011;73190;50.780;5.658;2024-01-30T12:40:15;15.75;;;7.03;;
83282;SDS011;73190;50.780;5.658;2024-01-30T12:42:45;15.78;;;7.22;;
83282;SDS011;73190;50.780;5.658;2024-01-30T12:45:16;13.58;;;7.15;;
83282;SDS011;73190;50.780;5.658;2024-01-30T12:47:48;12.45;;;6.72;;
83282;SDS011;73190;50.780;5.658;2024-01-30T12:50:16;13.98;;;7.30;;
83282;SDS011;73190;50.780;5.658;2024-01-30T12:52:44;16.67;;;6.97;;
83282;SDS011;73190;50.780;5.658;2024-01-30T12:55:12;15.98;;;6.90;;
83282;SDS011;73190;50.780;5.658;2024-01-30T12:57:40;17.02;;;7.45;;
83282;SDS011;73190;50.780;5.658;2024-01-30T13:00:08;28.05;;;16.62;;
83282;SDS011;73190;50.780;5.658;2024-01-30T13:02:36;18.73;;;9.50;;
83282;SDS011;73190;50.780;5.658;2024-01-30T13:05:05;18.32;;;8.15;;
83282;SDS011;73190;50.780;5.658;2024-01-30T13:07:33;17.60;;;8.15;;
83282;SDS011;73190;50.780;5.658;2024-01-30T13:10:02;19.25;;;9.28;;
83282;SDS011;73190;50.780;5.658;2024-01-30T13:12:30;18.07;;;8.63;;
83282;SDS011;73190;50.780;5.658;2024-01-30T13:14:59;21.57;;;8.80;;
83282;SDS011;73190;50.780;5.658;2024-01-30T13:17:31;20.08;;;8.85;;
83282;SDS011;73190;50.780;5.658;2024-01-30T13:19:59;23.30;;;9.68;;
83282;SDS011;73190;50.780;5.658;2024-01-30T13:22:26;20.75;;;9.00;;
83282;SDS011;73190;50.780;5.658;2024-01-30T13:24:54;17.52;;;8.93;;
83282;SDS011;73190;50.780;5.658;2024-01-30T13:27:21;16.57;;;9.40;;
83282;SDS011;73190;50.780;5.658;2024-01-30T13:29:49;14.20;;;8.85;;
83282;SDS011;73190;50.780;5.658;2024-01-30T13:32:16;22.27;;;9.33;;
83282;SDS011;73190;50.780;5.658;2024-01-30T13:34:44;17.55;;;8.48;;
83282;SDS011;73190;50.780;5.658;2024-01-30T13:37:11;18.00;;;8.98;;
83282;SDS011;73190;50.780;5.658;2024-01-30T13:39:39;17.12;;;9.68;;
83282;SDS011;73190;50.780;5.658;2024-01-30T13:42:06;22.65;;;9.95;;
83282;SDS011;73190;50.780;5.658;2024-01-30T13:44:35;15.93;;;8.00;;
83282;SDS011;73190;50.780;5.658;2024-01-30T13:47:03;12.95;;;6.78;;
83282;SDS011;73190;50.780;5.658;2024-01-30T13:49:30;13.22;;;6.30;;
83282;SDS011;73190;50.780;5.658;2024-01-30T13:51:59;9.53;;;5.40;;
83282;SDS011;73190;50.780;5.658;2024-01-30T13:54:26;13.13;;;5.62;;
83282;SDS011;73190;50.780;5.658;2024-01-30T13:56:54;14.33;;;5.87;;
83282;SDS011;73190;50.780;5.658;2024-01-30T13:59:22;16.85;;;4.45;;
83282;SDS011;73190;50.780;5.658;2024-01-30T14:01:51;12.33;;;5.10;;
83282;SDS011;73190;50.780;5.658;2024-01-30T14:04:19;11.95;;;3.92;;
83282;SDS011;73190;50.780;5.658;2024-01-30T14:06:46;13.80;;;4.10;;
83282;SDS011;73190;50.780;5.658;2024-01-30T14:09:14;16.20;;;4.03;;
83282;SDS011;73190;50.780;5.658;2024-01-30T14:11:42;14.00;;;3.87;;
83282;SDS011;73190;50.780;5.658;2024-01-30T14:14:09;12.47;;;3.60;;
83282;SDS011;73190;50.780;5.658;2024-01-30T14:16:37;16.20;;;3.95;;
83282;SDS011;73190;50.780;5.658;2024-01-30T14:19:05;9.33;;;4.00;;
83282;SDS011;73190;50.780;5.658;2024-01-30T14:21:32;10.53;;;3.50;;
83282;SDS011;73190;50.780;5.658;2024-01-30T14:23:59;11.60;;;3.55;;
83282;SDS011;73190;50.780;5.658;2024-01-30T14:26:28;14.10;;;6.55;;
83282;SDS011;73190;50.780;5.658;2024-01-30T14:28:56;37.67;;;6.30;;
83282;SDS011;73190;50.780;5.658;2024-01-30T14:31:23;29.35;;;4.42;;
83282;SDS011;73190;50.780;5.658;2024-01-30T14:33:51;23.98;;;5.03;;
83282;SDS011;73190;50.780;5.658;2024-01-30T14:36:18;19.52;;;3.90;;
83282;SDS011;73190;50.780;5.658;2024-01-30T14:38:46;11.40;;;3.85;;
83282;SDS011;73190;50.780;5.658;2024-01-30T14:41:13;10.28;;;3.12;;
83282;SDS011;73190;50.780;5.658;2024-01-30T14:43:41;8.90;;;2.80;;
83282;SDS011;73190;50.780;5.658;2024-01-30T14:46:09;7.53;;;2.65;;
83282;SDS011;73190;50.780;5.658;2024-01-30T14:48:37;12.05;;;2.27;;
83282;SDS011;73190;50.780;5.658;2024-01-30T14:51:04;9.93;;;2.77;;
83282;SDS011;73190;50.780;5.658;2024-01-30T14:53:32;4.78;;;1.95;;
83282;SDS011;73190;50.780;5.658;2024-01-30T14:55:59;6.25;;;1.87;;